sensor_id;sensor_type;location;lat;lon;timestamp;temperature;humidity
41592;DHT22;28026;48.562;14.440;2023-08-12T00:01:20;16.20;99.90
41592;DHT22;28026;48.562;14.440;2023-08-12T00:03:51;16.00;99.90
41592;DHT22;28026;48.562;14.440;2023-08-12T00:06:22;16.00;99.90
41592;DHT22;28026;48.562;14.440;2023-08-12T00:08:53;15.90;99.90
41592;DHT22;28026;48.562;14.440;2023-08-12T00:11:24;15.90;99.90
41592;DHT22;28026;48.562;14.440;2023-08-12T00:13:55;15.80;99.90
41592;DHT22;28026;48.562;14.440;2023-08-12T00:16:26;15.80;99.90
41592;DHT22;28026;48.562;14.440;2023-08-12T00:18:57;15.80;99.90
41592;DHT22;28026;48.562;14.440;2023-08-12T00:21:28;15.90;99.90
41592;DHT22;28026;48.562;14.440;2023-08-12T00:23:59;16.00;99.90
41592;DHT22;28026;48.562;14.440;2023-08-12T00:26:30;16.00;99.90
41592;DHT22;28026;48.562;14.440;2023-08-12T00:29:01;16.00;99.90
41592;DHT22;28026;48.562;14.440;2023-08-12T00:31:33;16.00;99.90
41592;DHT22;28026;48.562;14.440;2023-08-12T00:34:03;16.10;99.90
41592;DHT22;28026;48.562;14.440;2023-08-12T00:36:34;16.00;99.90
41592;DHT22;28026;48.562;14.440;2023-08-12T00:39:05;16.00;99.90
41592;DHT22;28026;48.562;14.440;2023-08-12T00:41:36;15.90;99.90
41592;DHT22;28026;48.562;14.440;2023-08-12T00:44:07;15.90;99.90
41592;DHT22;28026;48.562;14.440;2023-08-12T00:46:38;15.90;99.90
41592;DHT22;28026;48.562;14.440;2023-08-12T00:49:13;15.80;99.90
41592;DHT22;28026;48.562;14.440;2023-08-12T00:51:45;15.60;99.90
41592;DHT22;28026;48.562;14.440;2023-08-12T00:54:16;15.50;99.90
41592;DHT22;28026;48.562;14.440;2023-08-12T00:56:50;15.40;99.90
41592;DHT22;28026;48.562;14.440;2023-08-12T00:59:23;15.40;99.90
41592;DHT22;28026;48.562;14.440;2023-08-12T01:01:55;15.50;99.90
41592;DHT22;28026;48.562;14.440;2023-08-12T01:04:27;15.50;99.90
41592;DHT22;28026;48.562;14.440;2023-08-12T01:06:58;15.60;99.90
41592;DHT22;28026;48.562;14.440;2023-08-12T01:09:29;15.50;99.90
41592;DHT22;28026;48.562;14.440;2023-08-12T01:12:09;15.50;99.90
41592;DHT22;28026;48.562;14.440;2023-08-12T01:15:01;15.40;99.90
41592;DHT22;28026;48.562;14.440;2023-08-12T01:17:42;15.40;99.90
41592;DHT22;28026;48.562;14.440;2023-08-12T01:20:14;15.30;99.90
41592;DHT22;28026;48.562;14.440;2023-08-12T01:22:46;15.20;99.90
41592;DHT22;28026;48.562;14.440;2023-08-12T01:25:18;15.20;99.90
41592;DHT22;28026;48.562;14.440;2023-08-12T01:27:49;15.20;99.90
41592;DHT22;28026;48.562;14.440;2023-08-12T01:30:20;15.20;99.90
41592;DHT22;28026;48.562;14.440;2023-08-12T01:33:01;15.20;99.90
41592;DHT22;28026;48.562;14.440;2023-08-12T01:35:55;15.10;99.90
41592;DHT22;28026;48.562;14.440;2023-08-12T01:38:39;15.00;99.90
41592;DHT22;28026;48.562;14.440;2023-08-12T01:41:13;15.00;99.90
41592;DHT22;28026;48.562;14.440;2023-08-12T01:43:47;15.10;99.90
41592;DHT22;28026;48.562;14.440;2023-08-12T01:46:18;15.10;99.90
41592;DHT22;28026;48.562;14.440;2023-08-12T01:48:49;15.00;99.90
41592;DHT22;28026;48.562;14.440;2023-08-12T01:51:20;14.90;99.90
41592;DHT22;28026;48.562;14.440;2023-08-12T01:53:50;14.80;99.90
41592;DHT22;28026;48.562;14.440;2023-08-12T01:56:21;14.80;99.90
41592;DHT22;28026;48.562;14.440;2023-08-12T01:58:52;14.80;99.90
41592;DHT22;28026;48.562;14.440;2023-08-12T02:01:23;14.90;99.90
41592;DHT22;28026;48.562;14.440;2023-08-12T02:03:54;14.90;99.90
41592;DHT22;28026;48.562;14.440;2023-08-12T02:06:24;14.90;99.90
41592;DHT22;28026;48.562;14.440;2023-08-12T02:08:56;14.90;99.90
41592;DHT22;28026;48.562;14.440;2023-08-12T02:11:27;14.90;99.90
41592;DHT22;28026;48.562;14.440;2023-08-12T02:13:58;14.80;99.90
41592;DHT22;28026;48.562;14.440;2023-08-12T02:16:28;14.80;99.90
41592;DHT22;28026;48.562;14.440;2023-08-12T02:18:59;14.60;99.90
41592;DHT22;28026;48.562;14.440;2023-08-12T02:21:30;14.50;99.90
41592;DHT22;28026;48.562;14.440;2023-08-12T02:24:01;14.40;99.90
41592;DHT22;28026;48.562;14.440;2023-08-12T02:26:32;14.40;99.90
41592;DHT22;28026;48.562;14.440;2023-08-12T02:29:03;14.40;99.90
41592;DHT22;28026;48.562;14.440;2023-08-12T02:31:34;14.40;99.90
41592;DHT22;28026;48.562;14.440;2023-08-12T02:34:05;14.50;99.90
41592;DHT22;28026;48.562;14.440;2023-08-12T02:36:36;14.50;99.90
41592;DHT22;28026;48.562;14.440;2023-08-12T02:39:07;14.40;99.90
41592;DHT22;28026;48.562;14.440;2023-08-12T02:41:38;14.50;99.90
41592;DHT22;28026;48.562;14.440;2023-08-12T02:44:09;14.40;99.90
41592;DHT22;28026;48.562;14.440;2023-08-12T02:46:39;14.50;99.90
41592;DHT22;28026;48.562;14.440;2023-08-12T02:49:10;14.40;99.90
41592;DHT22;28026;48.562;14.440;2023-08-12T02:51:41;14.40;99.90
41592;DHT22;28026;48.562;14.440;2023-08-12T02:54:12;14.40;99.90
41592;DHT22;28026;48.562;14.440;2023-08-12T02:56:43;14.40;99.90
41592;DHT22;28026;48.562;14.440;2023-08-12T02:59:14;14.40;99.90
41592;DHT22;28026;48.562;14.440;2023-08-12T03:01:45;14.30;99.90
41592;DHT22;28026;48.562;14.440;2023-08-12T03:04:16;14.30;99.90
41592;DHT22;28026;48.562;14.440;2023-08-12T03:06:47;14.10;99.90
41592;DHT22;28026;48.562;14.440;2023-08-12T03:09:18;14.10;99.90
41592;DHT22;28026;48.562;14.440;2023-08-12T03:11:50;14.10;99.90
41592;DHT22;28026;48.562;14.440;2023-08-12T03:14:21;14.10;99.90
41592;DHT22;28026;48.562;14.440;2023-08-12T03:16:52;14.10;99.90
41592;DHT22;28026;48.562;14.440;2023-08-12T03:19:23;14.00;99.90
41592;DHT22;28026;48.562;14.440;2023-08-12T03:21:54;14.00;99.90
41592;DHT22;28026;48.562;14.440;2023-08-12T03:24:25;13.80;99.90
41592;DHT22;28026;48.562;14.440;2023-08-12T03:26:56;13.80;99.90
41592;DHT22;28026;48.562;14.440;2023-08-12T03:29:26;13.80;99.90
41592;DHT22;28026;48.562;14.440;2023-08-12T03:31:58;13.90;99.90
41592;DHT22;28026;48.562;14.440;2023-08-12T03:34:29;14.00;99.90
41592;DHT22;28026;48.562;14.440;2023-08-12T03:37:00;14.00;99.90
41592;DHT22;28026;48.562;14.440;2023-08-12T03:39:31;13.90;99.90
41592;DHT22;28026;48.562;14.440;2023-08-12T03:42:01;13.90;99.90
41592;DHT22;28026;48.562;14.440;2023-08-12T03:44:32;13.90;99.90
41592;DHT22;28026;48.562;14.440;2023-08-12T03:47:03;13.90;99.90
41592;DHT22;28026;48.562;14.440;2023-08-12T03:49:34;13.90;99.90
41592;DHT22;28026;48.562;14.440;2023-08-12T03:52:05;13.90;99.90
41592;DHT22;28026;48.562;14.440;2023-08-12T03:54:37;13.80;99.90
41592;DHT22;28026;48.562;14.440;2023-08-12T03:57:08;13.70;99.90
41592;DHT22;28026;48.562;14.440;2023-08-12T03:59:39;13.80;99.90
41592;DHT22;28026;48.562;14.440;2023-08-12T04:02:10;13.90;99.90
41592;DHT22;28026;48.562;14.440;2023-08-12T04:04:41;13.80;99.90
41592;DHT22;28026;48.562;14.440;2023-08-12T04:07:14;13.70;99.90
41592;DHT22;28026;48.562;14.440;2023-08-12T04:09:45;13.70;99.90
41592;DHT22;28026;48.562;14.440;2023-08-12T04:12:15;13.80;99.90
41592;DHT22;28026;48.562;14.440;2023-08-12T04:14:46;13.90;99.90
41592;DHT22;28026;48.562;14.440;2023-08-12T04:17:18;13.90;99.90
41592;DHT22;28026;48.562;14.440;2023-08-12T04:19:49;13.90;99.90
41592;DHT22;28026;48.562;14.440;2023-08-12T04:22:20;13.90;99.90
41592;DHT22;28026;48.562;14.440;2023-08-12T04:24:51;13.90;99.90
41592;DHT22;28026;48.562;14.440;2023-08-12T04:27:22;14.00;99.90
41592;DHT22;28026;48.562;14.440;2023-08-12T04:29:52;14.10;99.90
41592;DHT22;28026;48.562;14.440;2023-08-12T04:32:23;14.10;99.90
41592;DHT22;28026;48.562;14.440;2023-08-12T04:34:54;14.20;99.90
41592;DHT22;28026;48.562;14.440;2023-08-12T04:37:25;14.30;99.90
41592;DHT22;28026;48.562;14.440;2023-08-12T04:39:56;14.40;99.90
41592;DHT22;28026;48.562;14.440;2023-08-12T04:42:27;14.50;99.90
41592;DHT22;28026;48.562;14.440;2023-08-12T04:44:58;14.40;99.90
41592;DHT22;28026;48.562;14.440;2023-08-12T04:47:29;14.40;99.90
41592;DHT22;28026;48.562;14.440;2023-08-12T04:50:00;14.40;99.90
41592;DHT22;28026;48.562;14.440;2023-08-12T04:52:31;14.40;99.90
41592;DHT22;28026;48.562;14.440;2023-08-12T04:55:01;14.50;99.90
41592;DHT22;28026;48.562;14.440;2023-08-12T04:57:33;14.60;99.90
41592;DHT22;28026;48.562;14.440;2023-08-12T05:00:05;14.70;99.90
41592;DHT22;28026;48.562;14.440;2023-08-12T05:02:38;14.90;99.90
41592;DHT22;28026;48.562;14.440;2023-08-12T05:05:09;15.10;99.90
41592;DHT22;28026;48.562;14.440;2023-08-12T05:07:40;15.10;99.90
41592;DHT22;28026;48.562;14.440;2023-08-12T05:10:11;15.30;99.90
41592;DHT22;28026;48.562;14.440;2023-08-12T05:12:43;15.40;99.90
41592;DHT22;28026;48.562;14.440;2023-08-12T05:15:15;15.60;99.90
41592;DHT22;28026;48.562;14.440;2023-08-12T05:17:46;15.70;99.90
41592;DHT22;28026;48.562;14.440;2023-08-12T05:20:17;15.70;99.90
41592;DHT22;28026;48.562;14.440;2023-08-12T05:22:48;15.80;99.90
41592;DHT22;28026;48.562;14.440;2023-08-12T05:25:19;16.10;99.90
41592;DHT22;28026;48.562;14.440;2023-08-12T05:27:50;16.20;99.90
41592;DHT22;28026;48.562;14.440;2023-08-12T05:30:20;16.40;99.90
41592;DHT22;28026;48.562;14.440;2023-08-12T05:32:51;16.60;99.90
41592;DHT22;28026;48.562;14.440;2023-08-12T05:35:22;16.90;99.90
41592;DHT22;28026;48.562;14.440;2023-08-12T05:37:53;16.90;99.90
41592;DHT22;28026;48.562;14.440;2023-08-12T05:40:24;17.00;99.90
41592;DHT22;28026;48.562;14.440;2023-08-12T05:42:55;17.20;99.90
41592;DHT22;28026;48.562;14.440;2023-08-12T05:45:26;17.40;99.90
41592;DHT22;28026;48.562;14.440;2023-08-12T05:47:57;16.80;99.90
41592;DHT22;28026;48.562;14.440;2023-08-12T05:50:28;17.00;99.90
41592;DHT22;28026;48.562;14.440;2023-08-12T05:53:00;17.20;99.90
41592;DHT22;28026;48.562;14.440;2023-08-12T05:55:33;17.40;99.90
41592;DHT22;28026;48.562;14.440;2023-08-12T05:58:05;17.80;99.90
41592;DHT22;28026;48.562;14.440;2023-08-12T06:00:36;18.10;99.90
41592;DHT22;28026;48.562;14.440;2023-08-12T06:03:06;18.30;99.90
41592;DHT22;28026;48.562;14.440;2023-08-12T06:05:39;18.40;99.90
41592;DHT22;28026;48.562;14.440;2023-08-12T06:08:13;18.30;99.90
41592;DHT22;28026;48.562;14.440;2023-08-12T06:10:45;18.20;99.90
41592;DHT22;28026;48.562;14.440;2023-08-12T06:13:16;18.40;99.90
41592;DHT22;28026;48.562;14.440;2023-08-12T06:15:47;18.50;99.90
41592;DHT22;28026;48.562;14.440;2023-08-12T06:18:17;18.50;99.90
41592;DHT22;28026;48.562;14.440;2023-08-12T06:20:48;18.80;99.90
41592;DHT22;28026;48.562;14.440;2023-08-12T06:23:19;19.10;99.90
41592;DHT22;28026;48.562;14.440;2023-08-12T06:25:50;19.00;99.90
41592;DHT22;28026;48.562;14.440;2023-08-12T06:28:21;18.70;99.90
41592;DHT22;28026;48.562;14.440;2023-08-12T06:30:52;19.20;99.90
41592;DHT22;28026;48.562;14.440;2023-08-12T06:33:23;19.80;99.90
41592;DHT22;28026;48.562;14.440;2023-08-12T06:35:54;20.20;99.90
41592;DHT22;28026;48.562;14.440;2023-08-12T06:38:25;20.50;99.90
41592;DHT22;28026;48.562;14.440;2023-08-12T06:40:56;21.00;99.90
41592;DHT22;28026;48.562;14.440;2023-08-12T06:43:26;21.20;99.90
41592;DHT22;28026;48.562;14.440;2023-08-12T06:45:57;21.20;99.90
41592;DHT22;28026;48.562;14.440;2023-08-12T06:48:28;21.40;99.90
41592;DHT22;28026;48.562;14.440;2023-08-12T06:50:59;21.80;99.90
41592;DHT22;28026;48.562;14.440;2023-08-12T06:53:30;21.90;99.90
41592;DHT22;28026;48.562;14.440;2023-08-12T06:56:01;22.00;99.90
41592;DHT22;28026;48.562;14.440;2023-08-12T06:58:32;21.80;99.90
41592;DHT22;28026;48.562;14.440;2023-08-12T07:01:03;22.00;99.90
41592;DHT22;28026;48.562;14.440;2023-08-12T07:03:34;22.40;99.90
41592;DHT22;28026;48.562;14.440;2023-08-12T07:06:05;22.70;99.90
41592;DHT22;28026;48.562;14.440;2023-08-12T07:08:35;22.40;99.90
41592;DHT22;28026;48.562;14.440;2023-08-12T07:11:06;22.60;99.90
41592;DHT22;28026;48.562;14.440;2023-08-12T07:13:37;22.40;99.90
41592;DHT22;28026;48.562;14.440;2023-08-12T07:16:08;22.80;99.90
41592;DHT22;28026;48.562;14.440;2023-08-12T07:18:39;22.80;99.90
41592;DHT22;28026;48.562;14.440;2023-08-12T07:21:10;23.10;99.90
41592;DHT22;28026;48.562;14.440;2023-08-12T07:23:41;23.40;99.90
41592;DHT22;28026;48.562;14.440;2023-08-12T07:26:12;23.70;99.90
41592;DHT22;28026;48.562;14.440;2023-08-12T07:28:43;24.00;99.90
41592;DHT22;28026;48.562;14.440;2023-08-12T07:31:14;24.40;99.90
41592;DHT22;28026;48.562;14.440;2023-08-12T07:33:44;24.60;99.90
41592;DHT22;28026;48.562;14.440;2023-08-12T07:36:15;24.90;99.90
41592;DHT22;28026;48.562;14.440;2023-08-12T07:38:46;24.70;99.90
41592;DHT22;28026;48.562;14.440;2023-08-12T07:41:17;24.80;99.90
41592;DHT22;28026;48.562;14.440;2023-08-12T07:43:48;25.10;99.90
41592;DHT22;28026;48.562;14.440;2023-08-12T07:46:19;25.00;99.90
41592;DHT22;28026;48.562;14.440;2023-08-12T07:48:51;24.80;99.90
41592;DHT22;28026;48.562;14.440;2023-08-12T07:51:21;25.20;99.90
41592;DHT22;28026;48.562;14.440;2023-08-12T07:53:52;25.70;99.90
41592;DHT22;28026;48.562;14.440;2023-08-12T07:56:23;25.50;99.90
41592;DHT22;28026;48.562;14.440;2023-08-12T07:58:54;25.60;99.90
41592;DHT22;28026;48.562;14.440;2023-08-12T08:01:25;25.50;99.90
41592;DHT22;28026;48.562;14.440;2023-08-12T08:03:56;25.40;99.90
41592;DHT22;28026;48.562;14.440;2023-08-12T08:06:27;25.20;99.90
41592;DHT22;28026;48.562;14.440;2023-08-12T08:08:59;25.50;99.90
41592;DHT22;28026;48.562;14.440;2023-08-12T08:11:33;26.00;99.90
41592;DHT22;28026;48.562;14.440;2023-08-12T08:14:04;26.30;99.90
41592;DHT22;28026;48.562;14.440;2023-08-12T08:16:35;26.70;99.90
41592;DHT22;28026;48.562;14.440;2023-08-12T08:19:07;27.00;99.90
41592;DHT22;28026;48.562;14.440;2023-08-12T08:21:39;27.20;99.90
41592;DHT22;28026;48.562;14.440;2023-08-12T08:24:10;27.20;99.90
41592;DHT22;28026;48.562;14.440;2023-08-12T08:26:43;25.30;99.90
41592;DHT22;28026;48.562;14.440;2023-08-12T08:29:16;25.90;99.90
41592;DHT22;28026;48.562;14.440;2023-08-12T08:31:47;26.60;99.90
41592;DHT22;28026;48.562;14.440;2023-08-12T08:34:17;26.90;99.90
41592;DHT22;28026;48.562;14.440;2023-08-12T08:36:49;26.60;99.90
41592;DHT22;28026;48.562;14.440;2023-08-12T08:39:20;26.90;99.90
41592;DHT22;28026;48.562;14.440;2023-08-12T08:41:54;25.90;99.90
41592;DHT22;28026;48.562;14.440;2023-08-12T08:44:29;26.70;99.90
41592;DHT22;28026;48.562;14.440;2023-08-12T08:47:01;27.20;99.90
41592;DHT22;28026;48.562;14.440;2023-08-12T08:49:34;27.70;99.90
41592;DHT22;28026;48.562;14.440;2023-08-12T08:52:07;27.40;99.90
41592;DHT22;28026;48.562;14.440;2023-08-12T08:54:39;27.60;99.90
41592;DHT22;28026;48.562;14.440;2023-08-12T08:57:11;27.40;99.90
41592;DHT22;28026;48.562;14.440;2023-08-12T08:59:43;27.70;99.90
41592;DHT22;28026;48.562;14.440;2023-08-12T09:02:16;27.90;99.90
41592;DHT22;28026;48.562;14.440;2023-08-12T09:04:48;27.70;99.90
41592;DHT22;28026;48.562;14.440;2023-08-12T09:07:21;27.80;99.90
41592;DHT22;28026;48.562;14.440;2023-08-12T09:09:53;28.20;99.90
41592;DHT22;28026;48.562;14.440;2023-08-12T09:12:29;28.20;99.90
41592;DHT22;28026;48.562;14.440;2023-08-12T09:15:02;28.10;99.90
41592;DHT22;28026;48.562;14.440;2023-08-12T09:17:34;28.20;99.90
41592;DHT22;28026;48.562;14.440;2023-08-12T09:20:06;27.90;99.90
41592;DHT22;28026;48.562;14.440;2023-08-12T09:22:42;28.70;99.90
41592;DHT22;28026;48.562;14.440;2023-08-12T09:25:13;29.60;99.90
41592;DHT22;28026;48.562;14.440;2023-08-12T09:27:44;30.00;99.90
41592;DHT22;28026;48.562;14.440;2023-08-12T09:30:15;29.00;99.90
41592;DHT22;28026;48.562;14.440;2023-08-12T09:33:03;28.70;99.90
41592;DHT22;28026;48.562;14.440;2023-08-12T09:35:39;28.80;99.90
41592;DHT22;28026;48.562;14.440;2023-08-12T09:38:12;28.80;99.90
41592;DHT22;28026;48.562;14.440;2023-08-12T09:40:46;28.60;99.90
41592;DHT22;28026;48.562;14.440;2023-08-12T09:43:18;28.40;99.90
41592;DHT22;28026;48.562;14.440;2023-08-12T09:45:49;28.70;99.90
41592;DHT22;28026;48.562;14.440;2023-08-12T09:48:20;28.80;99.90
41592;DHT22;28026;48.562;14.440;2023-08-12T09:50:52;28.70;99.90
41592;DHT22;28026;48.562;14.440;2023-08-12T09:53:24;29.00;99.90
41592;DHT22;28026;48.562;14.440;2023-08-12T09:55:56;28.70;99.90
41592;DHT22;28026;48.562;14.440;2023-08-12T09:58:37;29.00;99.90
41592;DHT22;28026;48.562;14.440;2023-08-12T10:01:13;28.90;99.90
41592;DHT22;28026;48.562;14.440;2023-08-12T10:03:51;28.60;99.90
41592;DHT22;28026;48.562;14.440;2023-08-12T10:06:23;28.90;99.90
41592;DHT22;28026;48.562;14.440;2023-08-12T10:08:56;29.00;99.90
41592;DHT22;28026;48.562;14.440;2023-08-12T10:11:28;29.00;99.90
41592;DHT22;28026;48.562;14.440;2023-08-12T10:14:00;29.30;99.90
41592;DHT22;28026;48.562;14.440;2023-08-12T10:16:34;29.10;99.90
41592;DHT22;28026;48.562;14.440;2023-08-12T10:19:06;29.00;99.90
41592;DHT22;28026;48.562;14.440;2023-08-12T10:21:42;29.40;98.80
41592;DHT22;28026;48.562;14.440;2023-08-12T10:24:16;29.60;98.70
41592;DHT22;28026;48.562;14.440;2023-08-12T10:26:48;29.70;98.80
41592;DHT22;28026;48.562;14.440;2023-08-12T10:29:24;29.90;98.60
41592;DHT22;28026;48.562;14.440;2023-08-12T10:31:56;29.80;98.50
41592;DHT22;28026;48.562;14.440;2023-08-12T10:34:28;29.70;98.40
41592;DHT22;28026;48.562;14.440;2023-08-12T10:37:02;29.90;99.70
41592;DHT22;28026;48.562;14.440;2023-08-12T10:39:33;30.40;97.00
41592;DHT22;28026;48.562;14.440;2023-08-12T10:42:05;30.40;95.90
41592;DHT22;28026;48.562;14.440;2023-08-12T10:44:49;30.00;95.80
41592;DHT22;28026;48.562;14.440;2023-08-12T10:47:22;30.00;95.80
41592;DHT22;28026;48.562;14.440;2023-08-12T10:49:53;30.30;95.90
41592;DHT22;28026;48.562;14.440;2023-08-12T10:55:17;30.70;94.30
41592;DHT22;28026;48.562;14.440;2023-08-12T10:57:55;30.60;95.00
41592;DHT22;28026;48.562;14.440;2023-08-12T11:00:29;29.50;95.10
41592;DHT22;28026;48.562;14.440;2023-08-12T11:03:00;28.90;95.80
41592;DHT22;28026;48.562;14.440;2023-08-12T11:05:37;29.40;94.20
41592;DHT22;28026;48.562;14.440;2023-08-12T11:08:08;30.20;94.10
41592;DHT22;28026;48.562;14.440;2023-08-12T11:10:43;29.90;94.50
41592;DHT22;28026;48.562;14.440;2023-08-12T11:13:14;30.30;95.20
41592;DHT22;28026;48.562;14.440;2023-08-12T11:15:46;30.10;95.80
41592;DHT22;28026;48.562;14.440;2023-08-12T11:18:20;30.40;96.70
41592;DHT22;28026;48.562;14.440;2023-08-12T11:20:51;30.70;95.40
41592;DHT22;28026;48.562;14.440;2023-08-12T11:23:23;30.40;95.50
41592;DHT22;28026;48.562;14.440;2023-08-12T11:25:54;31.00;97.10
41592;DHT22;28026;48.562;14.440;2023-08-12T11:28:25;32.10;94.30
41592;DHT22;28026;48.562;14.440;2023-08-12T11:30:57;31.70;92.80
41592;DHT22;28026;48.562;14.440;2023-08-12T11:33:28;31.90;93.80
41592;DHT22;28026;48.562;14.440;2023-08-12T11:36:01;31.20;91.40
41592;DHT22;28026;48.562;14.440;2023-08-12T11:38:32;30.90;93.00
41592;DHT22;28026;48.562;14.440;2023-08-12T11:41:03;30.60;92.80
41592;DHT22;28026;48.562;14.440;2023-08-12T11:43:34;30.60;92.70
41592;DHT22;28026;48.562;14.440;2023-08-12T11:46:05;30.40;92.40
41592;DHT22;28026;48.562;14.440;2023-08-12T11:48:36;30.50;90.90
41592;DHT22;28026;48.562;14.440;2023-08-12T11:51:07;30.50;92.50
41592;DHT22;28026;48.562;14.440;2023-08-12T11:53:38;31.10;93.10
41592;DHT22;28026;48.562;14.440;2023-08-12T11:56:09;30.90;91.90
41592;DHT22;28026;48.562;14.440;2023-08-12T11:58:40;31.00;91.00
41592;DHT22;28026;48.562;14.440;2023-08-12T12:01:11;31.00;91.30
41592;DHT22;28026;48.562;14.440;2023-08-12T12:03:42;30.90;92.50
41592;DHT22;28026;48.562;14.440;2023-08-12T12:06:13;30.90;90.10
41592;DHT22;28026;48.562;14.440;2023-08-12T12:08:44;31.30;89.70
41592;DHT22;28026;48.562;14.440;2023-08-12T12:11:15;31.30;91.80
41592;DHT22;28026;48.562;14.440;2023-08-12T12:13:46;31.20;90.30
41592;DHT22;28026;48.562;14.440;2023-08-12T12:16:17;30.70;92.00
41592;DHT22;28026;48.562;14.440;2023-08-12T12:18:48;30.50;91.00
41592;DHT22;28026;48.562;14.440;2023-08-12T12:21:22;31.00;91.10
41592;DHT22;28026;48.562;14.440;2023-08-12T12:23:53;31.20;91.00
41592;DHT22;28026;48.562;14.440;2023-08-12T12:26:24;30.60;92.00
41592;DHT22;28026;48.562;14.440;2023-08-12T12:28:55;30.60;91.80
41592;DHT22;28026;48.562;14.440;2023-08-12T12:31:26;30.70;90.10
41592;DHT22;28026;48.562;14.440;2023-08-12T12:33:56;30.80;91.90
41592;DHT22;28026;48.562;14.440;2023-08-12T12:36:27;30.20;91.30
41592;DHT22;28026;48.562;14.440;2023-08-12T12:38:58;30.80;90.50
41592;DHT22;28026;48.562;14.440;2023-08-12T12:41:30;30.90;86.90
41592;DHT22;28026;48.562;14.440;2023-08-12T12:44:02;31.50;86.80
41592;DHT22;28026;48.562;14.440;2023-08-12T12:46:33;31.50;89.10
41592;DHT22;28026;48.562;14.440;2023-08-12T12:49:04;31.70;90.30
41592;DHT22;28026;48.562;14.440;2023-08-12T12:51:35;32.20;89.80
41592;DHT22;28026;48.562;14.440;2023-08-12T12:54:05;31.80;90.70
41592;DHT22;28026;48.562;14.440;2023-08-12T12:56:36;31.40;90.20
41592;DHT22;28026;48.562;14.440;2023-08-12T12:59:07;31.40;91.70
41592;DHT22;28026;48.562;14.440;2023-08-12T13:01:38;31.30;91.20
41592;DHT22;28026;48.562;14.440;2023-08-12T13:04:09;31.20;91.20
41592;DHT22;28026;48.562;14.440;2023-08-12T13:06:40;31.10;90.50
41592;DHT22;28026;48.562;14.440;2023-08-12T13:09:11;31.80;91.20
41592;DHT22;28026;48.562;14.440;2023-08-12T13:11:41;31.10;91.40
41592;DHT22;28026;48.562;14.440;2023-08-12T13:14:12;31.30;90.60
41592;DHT22;28026;48.562;14.440;2023-08-12T13:16:43;31.90;90.70
41592;DHT22;28026;48.562;14.440;2023-08-12T13:19:14;31.90;88.40
41592;DHT22;28026;48.562;14.440;2023-08-12T13:21:45;31.40;90.70
41592;DHT22;28026;48.562;14.440;2023-08-12T13:24:16;31.30;90.90
41592;DHT22;28026;48.562;14.440;2023-08-12T13:26:46;31.00;90.90
41592;DHT22;28026;48.562;14.440;2023-08-12T13:29:17;31.20;91.80
41592;DHT22;28026;48.562;14.440;2023-08-12T13:31:48;30.90;92.50
41592;DHT22;28026;48.562;14.440;2023-08-12T13:34:19;31.00;91.90
41592;DHT22;28026;48.562;14.440;2023-08-12T13:36:50;30.90;92.00
41592;DHT22;28026;48.562;14.440;2023-08-12T13:39:21;31.10;91.30
41592;DHT22;28026;48.562;14.440;2023-08-12T13:41:52;31.40;90.60
41592;DHT22;28026;48.562;14.440;2023-08-12T13:44:25;31.50;90.60
41592;DHT22;28026;48.562;14.440;2023-08-12T13:46:56;31.00;93.10
41592;DHT22;28026;48.562;14.440;2023-08-12T13:49:26;30.40;91.70
41592;DHT22;28026;48.562;14.440;2023-08-12T13:51:57;30.00;91.30
41592;DHT22;28026;48.562;14.440;2023-08-12T13:54:29;29.70;90.30
41592;DHT22;28026;48.562;14.440;2023-08-12T13:57:00;30.10;90.10
41592;DHT22;28026;48.562;14.440;2023-08-12T13:59:33;29.70;91.10
41592;DHT22;28026;48.562;14.440;2023-08-12T14:02:04;30.60;91.10
41592;DHT22;28026;48.562;14.440;2023-08-12T14:04:34;31.50;87.70
41592;DHT22;28026;48.562;14.440;2023-08-12T14:07:06;30.80;88.80
41592;DHT22;28026;48.562;14.440;2023-08-12T14:09:36;30.90;89.00
41592;DHT22;28026;48.562;14.440;2023-08-12T14:12:07;31.00;89.30
41592;DHT22;28026;48.562;14.440;2023-08-12T14:14:38;30.70;87.80
41592;DHT22;28026;48.562;14.440;2023-08-12T14:17:10;30.40;86.20
41592;DHT22;28026;48.562;14.440;2023-08-12T14:19:47;30.40;88.30
41592;DHT22;28026;48.562;14.440;2023-08-12T14:22:19;30.20;88.40
41592;DHT22;28026;48.562;14.440;2023-08-12T14:24:51;30.80;85.70
41592;DHT22;28026;48.562;14.440;2023-08-12T14:27:22;30.90;86.60
41592;DHT22;28026;48.562;14.440;2023-08-12T14:29:52;31.20;86.50
41592;DHT22;28026;48.562;14.440;2023-08-12T14:32:23;30.60;87.40
41592;DHT22;28026;48.562;14.440;2023-08-12T14:34:54;30.60;89.40
41592;DHT22;28026;48.562;14.440;2023-08-12T14:37:25;30.90;88.20
41592;DHT22;28026;48.562;14.440;2023-08-12T14:39:58;31.60;90.90
41592;DHT22;28026;48.562;14.440;2023-08-12T14:42:29;31.60;88.30
41592;DHT22;28026;48.562;14.440;2023-08-12T14:44:59;31.70;87.80
41592;DHT22;28026;48.562;14.440;2023-08-12T14:47:30;31.70;88.60
41592;DHT22;28026;48.562;14.440;2023-08-12T14:50:01;32.10;87.70
41592;DHT22;28026;48.562;14.440;2023-08-12T14:52:33;31.10;88.20
41592;DHT22;28026;48.562;14.440;2023-08-12T14:55:05;30.20;88.00
41592;DHT22;28026;48.562;14.440;2023-08-12T14:57:36;30.50;90.00
41592;DHT22;28026;48.562;14.440;2023-08-12T15:00:08;30.70;87.40
41592;DHT22;28026;48.562;14.440;2023-08-12T15:02:41;31.00;88.10
41592;DHT22;28026;48.562;14.440;2023-08-12T15:05:11;31.20;86.90
41592;DHT22;28026;48.562;14.440;2023-08-12T15:07:42;31.20;89.00
41592;DHT22;28026;48.562;14.440;2023-08-12T15:10:13;30.90;87.90
41592;DHT22;28026;48.562;14.440;2023-08-12T15:12:44;30.90;89.40
41592;DHT22;28026;48.562;14.440;2023-08-12T15:15:15;31.10;89.40
41592;DHT22;28026;48.562;14.440;2023-08-12T15:17:46;31.50;86.80
41592;DHT22;28026;48.562;14.440;2023-08-12T15:20:17;30.80;87.00
41592;DHT22;28026;48.562;14.440;2023-08-12T15:22:49;31.20;87.80
41592;DHT22;28026;48.562;14.440;2023-08-12T15:25:20;30.90;84.90
41592;DHT22;28026;48.562;14.440;2023-08-12T15:27:51;30.80;87.80
41592;DHT22;28026;48.562;14.440;2023-08-12T15:30:22;30.20;87.90
41592;DHT22;28026;48.562;14.440;2023-08-12T15:32:53;30.80;86.70
41592;DHT22;28026;48.562;14.440;2023-08-12T15:35:23;30.50;86.70
41592;DHT22;28026;48.562;14.440;2023-08-12T15:37:54;30.70;86.10
41592;DHT22;28026;48.562;14.440;2023-08-12T15:40:25;30.60;87.50
41592;DHT22;28026;48.562;14.440;2023-08-12T15:42:56;30.40;86.60
41592;DHT22;28026;48.562;14.440;2023-08-12T15:45:27;30.20;89.20